Time;durP1;ratioP1;P1;durP2;ratioP2;P2;SDS_P1;SDS_P2;PMS_P1;PMS_P2;Temp;Humidity;BMP_temperature;BMP_pressure;BME280_temperature;BME280_humidity;BME280_pressure;Samples;Min_cycle;Max_cycle;Signal;HPM_P1;HPM_P2
2024/02/02 00:01:28;;;;;;;9.05;4.18;;;3.80;99.90;;;;;;5052486;28;20028;-77
2024/02/02 00:03:54;;;;;;;9.55;4.70;;;3.70;99.90;;;;;;5052026;28;20101;-78
2024/02/02 00:06:20;;;;;;;9.75;4.82;;;3.60;99.90;;;;;;5051320;28;20494;-78
2024/02/02 00:08:45;;;;;;;8.43;4.28;;;3.60;99.90;;;;;;5052357;28;20056;-77
2024/02/02 00:11:11;;;;;;;11.63;4.68;;;3.60;99.90;;;;;;5053540;28;20465;-77
2024/02/02 00:13:37;;;;;;;7.50;3.03;;;3.50;99.90;;;;;;5050832;28;20032;-77
2024/02/02 00:16:03;;;;;;;7.50;4.57;;;3.50;99.90;;;;;;5051284;28;20093;-77
2024/02/02 00:18:29;;;;;;;5.65;2.05;;;3.80;99.90;;;;;;5057488;28;20573;-77
2024/02/02 00:20:56;;;;;;;3.92;1.80;;;4.20;99.90;;;;;;5055960;28;20028;-77
2024/02/02 00:23:22;;;;;;;6.65;2.25;;;4.30;99.90;;;;;;5055809;28;20032;-79
2024/02/02 00:25:48;;;;;;;4.07;2.13;;;4.30;99.90;;;;;;5054623;28;20040;-80
2024/02/02 00:28:14;;;;;;;6.60;2.05;;;4.00;99.90;;;;;;5055050;28;20044;-79
2024/02/02 00:30:40;;;;;;;4.93;1.88;;;4.00;99.90;;;;;;5055770;28;20033;-79
2024/02/02 00:33:06;;;;;;;5.72;2.13;;;4.00;99.90;;;;;;5057075;28;20663;-77
2024/02/02 00:35:32;;;;;;;8.32;3.50;;;3.70;99.90;;;;;;5053978;28;20776;-79
2024/02/02 00:37:58;;;;;;;4.70;2.65;;;3.60;99.90;;;;;;5054298;28;20028;-79
2024/02/02 00:40:25;;;;;;;4.82;2.90;;;3.50;99.90;;;;;;5056123;28;20044;-79
2024/02/02 00:42:50;;;;;;;4.90;2.08;;;3.40;99.90;;;;;;5056149;28;20028;-79
2024/02/02 00:45:16;;;;;;;4.00;1.75;;;3.70;99.90;;;;;;5054627;28;20071;-79
2024/02/02 00:47:42;;;;;;;5.13;2.05;;;4.10;99.90;;;;;;5055814;28;20039;-79
2024/02/02 00:50:10;;;;;;;4.50;1.92;;;4.40;99.90;;;;;;5037739;28;20072;-76
2024/02/02 00:52:36;;;;;;;5.55;2.53;;;4.10;99.90;;;;;;5054670;28;20037;-77
2024/02/02 00:55:02;;;;;;;7.10;3.15;;;3.80;99.90;;;;;;5055687;28;20094;-81
2024/02/02 00:57:28;;;;;;;9.40;4.15;;;3.60;99.90;;;;;;5054866;28;20059;-79
2024/02/02 00:59:54;;;;;;;9.45;5.32;;;3.30;99.90;;;;;;5036151;28;20503;-79
2024/02/02 01:02:20;;;;;;;9.18;5.38;;;3.20;99.90;;;;;;5054875;28;20036;-80
2024/02/02 01:04:46;;;;;;;16.30;9.65;;;3.10;99.90;;;;;;5054513;28;20043;-79
2024/02/02 01:07:16;;;;;;;13.23;6.65;;;3.20;99.90;;;;;;5054412;28;21602;-79
2024/02/02 01:09:42;;;;;;;16.73;11.07;;;3.00;99.90;;;;;;5053977;28;20048;-79
2024/02/02 01:12:08;;;;;;;20.35;12.60;;;2.90;99.90;;;;;;5055892;28;20036;-79
2024/02/02 01:14:35;;;;;;;17.10;11.25;;;2.80;99.90;;;;;;5054500;28;20398;-79
2024/02/02 01:17:01;;;;;;;19.70;10.60;;;2.90;99.90;;;;;;5055782;28;20029;-79
2024/02/02 01:19:27;;;;;;;15.57;8.95;;;2.80;99.90;;;;;;5053974;28;20171;-79
2024/02/02 01:21:52;;;;;;;16.98;11.40;;;2.80;99.90;;;;;;5055719;28;20029;-79
2024/02/02 01:24:18;;;;;;;13.57;6.70;;;2.70;99.90;;;;;;5054633;28;20090;-77
2024/02/02 01:26:44;;;;;;;14.32;8.07;;;2.70;99.90;;;;;;5054730;28;20515;-79
2024/02/02 01:29:09;;;;;;;8.18;4.15;;;2.80;99.90;;;;;;5055788;28;20060;-79
2024/02/02 01:31:35;;;;;;;19.23;10.90;;;2.80;99.90;;;;;;5056280;28;20060;-79
2024/02/02 01:34:01;;;;;;;12.18;7.90;;;2.90;99.90;;;;;;5053371;28;20089;-79
2024/02/02 01:36:27;;;;;;;8.85;3.83;;;2.90;99.90;;;;;;5051631;28;20039;-79
2024/02/02 01:38:54;;;;;;;6.65;4.10;;;2.80;99.90;;;;;;5051823;28;20036;-79
2024/02/02 01:41:20;;;;;;;12.60;5.70;;;2.70;99.90;;;;;;5054229;28;20032;-79
2024/02/02 01:43:46;;;;;;;11.40;5.53;;;2.90;99.90;;;;;;5054751;28;20043;-79
2024/02/02 01:46:15;;;;;;;9.90;4.93;;;2.90;99.90;;;;;;5049769;28;20459;-79
2024/02/02 01:48:41;;;;;;;11.95;4.68;;;2.90;99.90;;;;;;5051123;28;20462;-80
2024/02/02 01:51:07;;;;;;;8.52;4.90;;;2.90;99.90;;;;;;5055601;28;20398;-79
2024/02/02 01:53:34;;;;;;;7.95;4.05;;;2.90;99.90;;;;;;5054975;28;20218;-79
2024/02/02 01:56:00;;;;;;;8.77;3.95;;;3.00;99.90;;;;;;5055361;28;20036;-79
2024/02/02 01:58:26;;;;;;;9.82;3.20;;;2.90;99.90;;;;;;5055445;28;21718;-79
2024/02/02 02:00:52;;;;;;;8.68;4.65;;;2.90;99.90;;;;;;5054743;28;20033;-79
2024/02/02 02:03:18;;;;;;;11.77;4.30;;;2.80;99.90;;;;;;5054507;28;20048;-79
2024/02/02 02:05:44;;;;;;;7.05;3.45;;;2.70;99.90;;;;;;5055391;28;20609;-79
2024/02/02 02:08:10;;;;;;;8.32;4.10;;;2.70;99.90;;;;;;5053848;28;20035;-79
2024/02/02 02:10:36;;;;;;;8.45;3.30;;;2.70;99.90;;;;;;5054291;28;20117;-79
2024/02/02 02:13:02;;;;;;;5.68;2.70;;;2.70;99.90;;;;;;5055804;28;20555;-79
2024/02/02 02:15:28;;;;;;;5.18;2.58;;;3.00;99.90;;;;;;5054186;28;20043;-79
2024/02/02 02:17:54;;;;;;;6.63;2.85;;;3.40;99.90;;;;;;5052571;28;20086;-80
2024/02/02 02:20:25;;;;;;;5.18;2.33;;;3.50;99.90;;;;;;5055505;28;20041;-79
2024/02/02 02:22:51;;;;;;;7.22;2.72;;;3.40;99.90;;;;;;5055131;28;21283;-77
2024/02/02 02:25:17;;;;;;;7.38;3.13;;;3.30;99.90;;;;;;5054778;28;20595;-79
2024/02/02 02:27:44;;;;;;;6.80;3.20;;;3.20;99.90;;;;;;5053949;28;20410;-79
2024/02/02 02:30:10;;;;;;;9.20;3.50;;;3.00;99.90;;;;;;5054676;28;20544;-79
2024/02/02 02:32:36;;;;;;;8.82;3.63;;;2.80;99.90;;;;;;5053635;28;20506;-79
2024/02/02 02:35:02;;;;;;;8.55;4.15;;;2.80;99.90;;;;;;5055163;28;23241;-79
2024/02/02 02:37:27;;;;;;;11.10;4.25;;;2.80;99.90;;;;;;5052187;28;20477;-79
2024/02/02 02:39:53;;;;;;;10.63;4.65;;;2.80;99.90;;;;;;5054927;28;20033;-79
2024/02/02 02:42:19;;;;;;;9.52;4.57;;;2.70;99.90;;;;;;5053069;28;20068;-79
2024/02/02 02:44:45;;;;;;;7.70;5.28;;;2.50;99.90;;;;;;5054077;28;20682;-79
2024/02/02 02:47:11;;;;;;;11.55;6.13;;;2.50;99.90;;;;;;5053133;28;20471;-79
2024/02/02 02:49:37;;;;;;;10.15;4.72;;;2.40;99.90;;;;;;5049408;28;20483;-79
2024/02/02 02:52:03;;;;;;;7.30;3.00;;;2.40;99.90;;;;;;5054128;28;20044;-79
2024/02/02 02:54:29;;;;;;;6.47;2.80;;;2.50;99.90;;;;;;5054346;28;20033;-79
2024/02/02 02:56:55;;;;;;;8.18;3.13;;;2.50;99.90;;;;;;5053168;28;20032;-79
2024/02/02 02:59:21;;;;;;;5.80;3.58;;;2.40;99.90;;;;;;5055065;28;20161;-79
2024/02/02 03:01:47;;;;;;;7.43;2.90;;;2.40;99.90;;;;;;5055331;28;20102;-79
2024/02/02 03:04:13;;;;;;;6.68;2.80;;;2.40;99.90;;;;;;5058095;28;20036;-79
2024/02/02 03:06:38;;;;;;;4.93;2.28;;;2.50;99.90;;;;;;5057943;28;20032;-79
2024/02/02 03:09:04;;;;;;;5.25;2.28;;;2.50;99.90;;;;;;5057744;28;20053;-79
2024/02/02 03:11:30;;;;;;;10.68;4.25;;;2.70;99.90;;;;;;5058094;28;20024;-79
2024/02/02 03:13:57;;;;;;;8.38;4.60;;;2.60;99.90;;;;;;5058573;28;20032;-80
2024/02/02 03:16:22;;;;;;;10.13;4.60;;;2.40;99.90;;;;;;5057758;28;20056;-79
2024/02/02 03:18:48;;;;;;;8.05;4.60;;;2.30;99.90;;;;;;5056942;28;20159;-79
2024/02/02 03:21:14;;;;;;;14.15;5.03;;;2.40;99.90;;;;;;5058901;28;20049;-79
2024/02/02 03:23:39;;;;;;;12.07;4.95;;;2.40;99.90;;;;;;5057781;28;20032;-79
2024/02/02 03:26:06;;;;;;;10.52;4.35;;;2.40;99.90;;;;;;5058163;28;20041;-79
2024/02/02 03:28:33;;;;;;;7.60;3.65;;;2.50;99.90;;;;;;5058130;28;20147;-79
2024/02/02 03:30:59;;;;;;;7.57;3.13;;;2.70;99.90;;;;;;5057781;28;20036;-77
2024/02/02 03:33:24;;;;;;;9.05;3.00;;;2.80;99.90;;;;;;5057236;28;24142;-77
2024/02/02 03:35:50;;;;;;;6.63;4.10;;;2.80;99.90;;;;;;5057963;28;20071;-77
2024/02/02 03:38:16;;;;;;;4.93;2.70;;;2.60;99.90;;;;;;5055360;28;20035;-76
2024/02/02 03:40:42;;;;;;;3.70;2.00;;;2.70;99.90;;;;;;5056676;28;20028;-77
2024/02/02 03:43:07;;;;;;;5.18;2.47;;;2.50;99.90;;;;;;5057650;28;20119;-77
2024/02/02 03:45:33;;;;;;;6.93;3.28;;;2.50;99.90;;;;;;5056836;28;20037;-77
2024/02/02 03:48:00;;;;;;;5.45;2.10;;;2.40;99.90;;;;;;5056301;28;20737;-77
2024/02/02 03:50:25;;;;;;;5.28;2.30;;;2.40;99.90;;;;;;5058251;28;20036;-77
2024/02/02 03:52:51;;;;;;;4.22;1.83;;;2.60;99.90;;;;;;5057477;28;20509;-80
2024/02/02 03:55:17;;;;;;;5.50;2.35;;;2.80;99.90;;;;;;5056225;28;20626;-79
2024/02/02 03:57:43;;;;;;;5.05;2.45;;;2.70;99.90;;;;;;5057665;28;20033;-79
2024/02/02 04:00:12;;;;;;;5.20;1.90;;;2.50;99.90;;;;;;5056681;28;20036;-74
2024/02/02 04:02:37;;;;;;;7.20;2.53;;;2.40;99.90;;;;;;5054783;28;20029;-77
2024/02/02 04:05:04;;;;;;;5.03;2.20;;;2.40;99.90;;;;;;5050643;28;20044;-77
2024/02/02 04:07:30;;;;;;;5.32;2.28;;;2.40;99.90;;;;;;5052824;28;20041;-77
2024/02/02 04:09:55;;;;;;;5.50;2.35;;;2.30;99.90;;;;;;5052541;28;20386;-77
2024/02/02 04:12:21;;;;;;;4.60;2.28;;;2.30;99.90;;;;;;5051202;28;20060;-77
2024/02/02 04:14:47;;;;;;;5.20;2.65;;;2.30;99.90;;;;;;5051831;28;20032;-77
2024/02/02 04:17:12;;;;;;;4.47;2.42;;;2.20;99.90;;;;;;5050331;28;20428;-79
2024/02/02 04:19:38;;;;;;;7.78;3.20;;;2.10;99.90;;;;;;5050424;28;20610;-77
2024/02/02 04:22:04;;;;;;;6.22;3.20;;;1.90;99.90;;;;;;5050445;28;20037;-77
2024/02/02 04:24:29;;;;;;;9.45;3.40;;;1.90;99.90;;;;;;5052171;28;20076;-77
2024/02/02 04:26:55;;;;;;;7.63;3.60;;;2.00;99.90;;;;;;5053484;28;20033;-77
2024/02/02 04:29:20;;;;;;;4.10;1.80;;;2.20;99.90;;;;;;5052983;28;20033;-77
2024/02/02 04:31:46;;;;;;;4.72;2.75;;;2.10;99.90;;;;;;5053079;28;20178;-79
2024/02/02 04:34:12;;;;;;;7.40;2.80;;;2.10;99.90;;;;;;5053290;28;20039;-77
2024/02/02 04:36:39;;;;;;;9.38;2.97;;;2.10;99.90;;;;;;5052222;28;20216;-76
2024/02/02 04:39:04;;;;;;;5.90;2.38;;;2.00;99.90;;;;;;5049531;28;20693;-77
2024/02/02 04:41:30;;;;;;;5.35;1.40;;;2.10;99.90;;;;;;5050988;28;21325;-79
2024/02/02 04:43:56;;;;;;;4.75;1.58;;;2.20;99.90;;;;;;5047940;28;20815;-77
2024/02/02 04:46:22;;;;;;;6.15;1.55;;;2.40;99.90;;;;;;5049029;28;20063;-77
2024/02/02 04:48:47;;;;;;;2.95;1.33;;;2.80;99.90;;;;;;5051751;28;20090;-77
2024/02/02 04:51:13;;;;;;;4.30;1.33;;;2.80;99.90;;;;;;5052671;28;20706;-79
2024/02/02 04:53:39;;;;;;;5.10;1.38;;;2.80;99.90;;;;;;5049114;28;20037;-79
2024/02/02 04:56:05;;;;;;;4.03;1.88;;;2.90;99.90;;;;;;5049638;28;20101;-77
2024/02/02 04:58:30;;;;;;;4.75;2.67;;;2.90;99.90;;;;;;5049153;28;20135;-79
2024/02/02 05:00:56;;;;;;;5.22;2.78;;;2.60;99.90;;;;;;5049350;28;20025;-78
2024/02/02 05:03:22;;;;;;;5.28;2.22;;;2.60;99.90;;;;;;5048103;28;20033;-79
2024/02/02 05:05:47;;;;;;;4.05;1.70;;;2.40;99.90;;;;;;5049447;28;20111;-78
2024/02/02 05:08:14;;;;;;;4.50;1.63;;;3.10;99.90;;;;;;5048641;28;20036;-79
2024/02/02 05:10:40;;;;;;;3.60;1.83;;;3.40;99.90;;;;;;5050147;28;20090;-77
2024/02/02 05:13:06;;;;;;;4.35;2.00;;;2.80;99.90;;;;;;5048955;28;21043;-77
2024/02/02 05:15:31;;;;;;;4.57;1.70;;;2.60;99.90;;;;;;5049078;28;20033;-77
2024/02/02 05:17:57;;;;;;;4.15;2.13;;;2.40;99.90;;;;;;5049458;28;20033;-77
2024/02/02 05:20:23;;;;;;;6.90;3.10;;;2.30;99.90;;;;;;5048502;28;20060;-77
2024/02/02 05:22:48;;;;;;;6.78;2.60;;;2.40;99.90;;;;;;5048962;28;20028;-79
2024/02/02 05:25:14;;;;;;;10.00;4.22;;;2.30;99.90;;;;;;5048136;28;20123;-79
2024/02/02 05:27:40;;;;;;;8.07;3.28;;;2.20;99.90;;;;;;5048850;28;20733;-79
2024/02/02 05:30:06;;;;;;;5.72;3.28;;;2.20;99.90;;;;;;5048907;28;21261;-79
2024/02/02 05:32:31;;;;;;;7.45;3.20;;;2.30;99.90;;;;;;5031482;28;20359;-79
2024/02/02 05:34:57;;;;;;;8.15;3.40;;;2.30;99.90;;;;;;5047858;28;20043;-79
2024/02/02 05:37:23;;;;;;;10.48;4.55;;;2.10;99.90;;;;;;5049255;28;20136;-79
2024/02/02 05:39:48;;;;;;;8.75;4.57;;;2.20;99.90;;;;;;5049338;28;20035;-80
2024/02/02 05:42:14;;;;;;;6.75;3.75;;;1.90;99.90;;;;;;5048484;28;20040;-77
2024/02/02 05:44:42;;;;;;;8.02;4.00;;;1.70;99.90;;;;;;5047602;28;20045;-78
2024/02/02 05:47:08;;;;;;;8.32;3.88;;;1.70;99.90;;;;;;5049978;28;20413;-77
2024/02/02 05:49:33;;;;;;;9.82;5.20;;;1.80;99.90;;;;;;5048590;28;20036;-77
2024/02/02 05:52:00;;;;;;;8.90;4.95;;;1.60;99.90;;;;;;5048595;28;20048;-77
2024/02/02 05:54:26;;;;;;;7.47;3.35;;;1.90;99.90;;;;;;5047608;28;20020;-77
2024/02/02 05:56:51;;;;;;;8.30;4.88;;;1.90;99.90;;;;;;5048237;28;20496;-77
2024/02/02 05:59:18;;;;;;;11.38;5.93;;;1.80;99.90;;;;;;5049368;28;20064;-78
2024/02/02 06:01:44;;;;;;;11.43;5.43;;;1.90;99.90;;;;;;5051392;28;20040;-77
2024/02/02 06:04:10;;;;;;;8.93;4.35;;;1.80;99.90;;;;;;5049569;28;20036;-79
2024/02/02 06:06:35;;;;;;;7.53;2.95;;;1.70;99.90;;;;;;5048718;28;20499;-76
2024/02/02 06:09:01;;;;;;;8.65;4.50;;;1.70;99.90;;;;;;5048359;28;20049;-76
2024/02/02 06:11:27;;;;;;;7.35;3.25;;;1.80;99.90;;;;;;5049608;28;20040;-77
2024/02/02 06:13:55;;;;;;;5.80;2.60;;;1.70;99.90;;;;;;5047513;28;20043;-79
2024/02/02 06:16:25;;;;;;;4.78;2.03;;;1.70;99.90;;;;;;5055939;28;20032;-78
2024/02/02 06:18:51;;;;;;;6.22;2.88;;;1.80;99.90;;;;;;5053400;28;20037;-79
2024/02/02 06:21:17;;;;;;;8.77;3.78;;;2.10;99.90;;;;;;5051296;28;20028;-78
2024/02/02 06:23:42;;;;;;;8.35;4.65;;;2.10;99.90;;;;;;5050276;28;20665;-81
2024/02/02 06:26:08;;;;;;;7.40;3.90;;;2.20;99.90;;;;;;5050586;28;20072;-79
2024/02/02 06:28:34;;;;;;;6.05;3.35;;;2.40;99.90;;;;;;5050300;28;20037;-80
2024/02/02 06:31:00;;;;;;;7.85;3.70;;;2.30;99.90;;;;;;5049771;28;20038;-80
2024/02/02 06:33:25;;;;;;;6.25;2.80;;;2.40;99.90;;;;;;5052830;28;20044;-81
2024/02/02 06:35:51;;;;;;;8.07;3.08;;;2.30;99.90;;;;;;5053812;28;20123;-81
2024/02/02 06:38:16;;;;;;;5.10;2.40;;;2.30;99.90;;;;;;5054347;28;20040;-80
2024/02/02 06:40:42;;;;;;;4.95;1.65;;;2.40;99.90;;;;;;5056121;28;20028;-81
2024/02/02 06:43:08;;;;;;;3.67;1.60;;;2.70;99.90;;;;;;5053605;28;20437;-80
2024/02/02 06:45:34;;;;;;;3.53;1.83;;;2.80;99.90;;;;;;5054133;28;20462;-81
2024/02/02 06:48:00;;;;;;;4.13;1.85;;;2.60;99.90;;;;;;5053141;28;20680;-80
2024/02/02 06:50:26;;;;;;;6.53;2.30;;;2.50;99.90;;;;;;5051853;28;20142;-81
2024/02/02 06:52:52;;;;;;;12.80;5.78;;;2.50;99.90;;;;;;5051019;28;20259;-80
2024/02/02 06:55:18;;;;;;;12.95;4.60;;;2.40;99.90;;;;;;5053119;28;20036;-81
2024/02/02 06:57:44;;;;;;;6.65;3.20;;;2.50;99.90;;;;;;5051598;28;21213;-81
2024/02/02 07:00:13;;;;;;;6.97;3.05;;;2.50;99.90;;;;;;5051945;28;20040;-80
2024/02/02 07:02:39;;;;;;;5.82;2.65;;;2.50;99.90;;;;;;5052148;28;20040;-80
2024/02/02 07:05:05;;;;;;;5.55;2.28;;;2.50;99.90;;;;;;5051556;28;20044;-81
2024/02/02 07:07:31;;;;;;;6.78;2.53;;;2.40;99.90;;;;;;5052011;28;20039;-79
2024/02/02 07:09:56;;;;;;;13.20;6.93;;;2.40;99.90;;;;;;5052191;28;20532;-79
2024/02/02 07:12:34;;;;;;;12.55;5.75;;;2.40;99.90;;;;;;5052343;28;20855;-79
2024/02/02 07:15:04;;;;;;;9.23;4.45;;;2.50;99.90;;;;;;5051987;28;20036;-79
2024/02/02 07:17:40;;;;;;;9.32;4.05;;;2.40;99.90;;;;;;5051868;28;20028;-79
2024/02/02 07:20:30;;;;;;;8.55;4.00;;;2.30;99.90;;;;;;5051399;28;20037;-80
2024/02/02 07:23:06;;;;;;;6.43;2.95;;;2.20;99.90;;;;;;5050989;28;20036;-81
2024/02/02 07:25:40;;;;;;;7.22;3.38;;;2.10;99.90;;;;;;5052190;28;20044;-81
2024/02/02 07:28:07;;;;;;;9.68;3.25;;;2.20;99.90;;;;;;5051628;28;20036;-80
2024/02/02 07:30:54;;;;;;;7.55;3.17;;;2.20;99.90;;;;;;5050886;28;20389;-79
2024/02/02 07:33:40;;;;;;;5.68;2.95;;;2.10;99.90;;;;;;5050588;28;20093;-79
2024/02/02 07:36:20;;;;;;;5.00;2.40;;;2.20;99.90;;;;;;5038291;28;20079;-80
2024/02/02 07:38:48;;;;;;;5.10;2.17;;;2.30;99.90;;;;;;5047617;28;20040;-80
2024/02/02 07:41:22;;;;;;;8.40;3.03;;;2.30;99.90;;;;;;5047549;28;20069;-79
2024/02/02 07:43:48;;;;;;;6.55;2.78;;;2.30;99.90;;;;;;5045435;28;20032;-79
2024/02/02 07:46:14;;;;;;;6.07;3.10;;;2.30;99.90;;;;;;5045462;28;20041;-79
2024/02/02 07:48:40;;;;;;;7.03;2.08;;;2.30;99.90;;;;;;5045407;28;20119;-79
2024/02/02 07:51:11;;;;;;;4.07;1.77;;;2.40;99.90;;;;;;5047122;28;20029;-80
2024/02/02 07:53:36;;;;;;;4.57;1.85;;;2.80;99.90;;;;;;5047210;28;20029;-80
2024/02/02 07:56:02;;;;;;;3.80;1.42;;;3.10;99.90;;;;;;5044475;28;20075;-80
2024/02/02 07:58:28;;;;;;;5.30;2.10;;;3.10;99.90;;;;;;5047246;28;20081;-80
2024/02/02 08:00:54;;;;;;;5.47;2.53;;;2.80;99.90;;;;;;5047358;28;20033;-80
2024/02/02 08:03:20;;;;;;;5.70;3.15;;;2.60;99.90;;;;;;5047050;28;20103;-80
2024/02/02 08:05:46;;;;;;;8.60;2.78;;;2.50;99.90;;;;;;5045436;28;20048;-79
2024/02/02 08:08:12;;;;;;;6.68;3.10;;;2.50;99.90;;;;;;5046667;28;20036;-79
2024/02/02 08:10:42;;;;;;;6.32;2.83;;;2.60;99.90;;;;;;5045295;28;20051;-80
2024/02/02 08:13:12;;;;;;;7.30;2.80;;;2.60;99.90;;;;;;5047041;28;20032;-80
2024/02/02 08:15:38;;;;;;;7.80;3.42;;;2.60;99.90;;;;;;5028834;28;20402;-78
2024/02/02 08:18:08;;;;;;;5.15;2.83;;;2.60;99.90;;;;;;5047000;28;20029;-78
2024/02/02 08:20:35;;;;;;;6.53;2.72;;;2.60;99.90;;;;;;5044750;28;20585;-79
2024/02/02 08:23:00;;;;;;;4.25;2.47;;;2.60;99.90;;;;;;5047721;28;20037;-79
2024/02/02 08:25:26;;;;;;;6.20;2.65;;;2.60;99.90;;;;;;5046363;28;20048;-79
2024/02/02 08:27:52;;;;;;;6.93;2.13;;;2.80;99.90;;;;;;5046017;28;20039;-80
2024/02/02 08:30:18;;;;;;;6.20;3.70;;;2.80;99.90;;;;;;5047522;28;20039;-79
2024/02/02 08:32:47;;;;;;;117.78;55.47;;;2.80;99.90;;;;;;5045715;28;20031;-79
2024/02/02 08:35:13;;;;;;;41.78;21.52;;;2.80;99.90;;;;;;5047132;28;20041;-79
2024/02/02 08:37:41;;;;;;;22.42;11.13;;;2.80;99.90;;;;;;5045281;28;20089;-81
2024/02/02 08:40:31;;;;;;;11.35;4.95;;;2.80;99.90;;;;;;5044940;28;20020;-82
2024/02/02 08:42:57;;;;;;;6.63;2.80;;;3.00;99.90;;;;;;5045775;28;20036;-81
2024/02/02 08:46:06;;;;;;;4.35;2.03;;;3.20;99.90;;;;;;5046183;28;20043;-81
2024/02/02 08:48:39;;;;;;;3.85;1.42;;;3.50;99.90;;;;;;5044074;28;20052;-81
2024/02/02 08:51:22;;;;;;;4.63;1.88;;;3.60;99.90;;;;;;5045518;28;20025;-81
2024/02/02 08:53:49;;;;;;;7.22;2.00;;;3.60;99.90;;;;;;5044779;28;20020;-80
2024/02/02 08:56:15;;;;;;;4.03;2.33;;;3.50;99.90;;;;;;5028029;28;20360;-81
2024/02/02 08:58:41;;;;;;;6.85;2.75;;;3.40;99.90;;;;;;5045428;28;20087;-81
2024/02/02 09:01:39;;;;;;;4.03;2.15;;;3.30;99.90;;;;;;5044688;28;20090;-82
2024/02/02 09:04:05;;;;;;;5.10;2.22;;;3.30;99.90;;;;;;5043752;28;20044;-81
2024/02/02 09:06:44;;;;;;;4.93;2.45;;;3.30;99.90;;;;;;5046645;28;20035;-80
2024/02/02 09:09:17;;;;;;;6.70;1.90;;;3.10;99.90;;;;;;5045811;28;20110;-83
2024/02/02 09:11:47;;;;;;;3.85;2.13;;;3.20;99.90;;;;;;5046422;28;20494;-81
2024/02/02 09:14:17;;;;;;;5.05;1.98;;;3.40;99.90;;;;;;5038827;28;20068;-80
2024/02/02 09:16:53;;;;;;;4.88;2.25;;;3.60;99.90;;;;;;5045634;28;20037;-80
2024/02/02 09:19:42;;;;;;;4.72;2.28;;;3.80;99.90;;;;;;5045034;28;20512;-81
2024/02/02 09:22:14;;;;;;;5.97;2.10;;;4.10;99.90;;;;;;5044903;28;20029;-81
2024/02/02 09:24:42;;;;;;;8.55;2.60;;;4.10;99.90;;;;;;5045225;28;20040;-80
2024/02/02 09:27:14;;;;;;;4.35;2.05;;;4.10;99.90;;;;;;5045786;28;20514;-80
2024/02/02 09:29:45;;;;;;;3.97;1.98;;;4.00;99.90;;;;;;5044235;28;20036;-79
2024/02/02 09:32:13;;;;;;;5.90;2.20;;;3.90;99.90;;;;;;5043362;28;20126;-80
2024/02/02 09:34:40;;;;;;;5.68;2.47;;;3.90;99.90;;;;;;5045223;28;20043;-80
2024/02/02 09:37:22;;;;;;;6.15;2.42;;;3.80;99.90;;;;;;5045504;28;20036;-79
2024/02/02 09:39:55;;;;;;;3.50;1.80;;;3.90;99.90;;;;;;5044444;28;20037;-80
2024/02/02 09:42:21;;;;;;;4.80;2.47;;;3.90;99.90;;;;;;5044618;28;20040;-80
2024/02/02 09:45:11;;;;;;;4.57;2.47;;;3.90;99.90;;;;;;5044549;28;20056;-81
2024/02/02 09:47:56;;;;;;;4.75;2.33;;;3.90;99.90;;;;;;5036238;28;20052;-80
2024/02/02 09:50:33;;;;;;;4.47;2.20;;;4.00;99.90;;;;;;5044393;28;20040;-80
2024/02/02 09:53:30;;;;;;;4.45;2.13;;;4.10;99.90;;;;;;5044615;28;20043;-80
2024/02/02 09:56:07;;;;;;;7.88;2.40;;;4.20;99.90;;;;;;5044671;28;20032;-78
2024/02/02 09:58:33;;;;;;;6.60;2.65;;;4.30;99.90;;;;;;5044144;28;20147;-80
2024/02/02 10:01:26;;;;;;;10.00;3.58;;;4.30;99.90;;;;;;5044599;28;20378;-80
2024/02/02 10:04:01;;;;;;;4.45;2.50;;;4.40;99.90;;;;;;5045215;28;20032;-80
2024/02/02 10:06:53;;;;;;;;;;;4.40;99.90;;;;;;5044818;28;20036;-80
2024/02/02 10:10:03;;;;;;;4.63;2.20;;;4.50;99.90;;;;;;5039160;28;19994;-79
2024/02/02 10:12:44;;;;;;;5.63;2.70;;;4.80;99.90;;;;;;5044789;28;20134;-79
2024/02/02 10:15:16;;;;;;;5.93;3.20;;;4.90;99.90;;;;;;5044393;28;20035;-79
2024/02/02 10:17:44;;;;;;;5.13;2.70;;;4.90;99.90;;;;;;5045112;28;20044;-78
2024/02/02 10:20:52;;;;;;;8.55;4.22;;;5.00;99.90;;;;;;5046080;28;20090;-78
2024/02/02 10:23:37;;;;;;;9.68;4.40;;;5.00;99.90;;;;;;5033190;28;20040;-79
2024/02/02 10:26:07;;;;;;;9.57;5.60;;;5.00;99.90;;;;;;5044988;28;20110;-79
2024/02/02 10:28:33;;;;;;;11.00;4.68;;;5.10;99.90;;;;;;5045526;28;20882;-78
2024/02/02 10:31:04;;;;;;;9.82;5.13;;;5.20;99.90;;;;;;5044657;28;20043;-79
2024/02/02 10:34:08;;;;;;;12.15;5.20;;;5.30;99.90;;;;;;5045136;28;20123;-78
2024/02/02 10:37:07;;;;;;;8.35;4.90;;;5.30;99.90;;;;;;5044727;28;21052;-81
2024/02/02 10:40:01;;;;;;;9.98;5.15;;;5.50;99.90;;;;;;5044641;28;20394;-81
2024/02/02 10:43:03;;;;;;;9.32;4.60;;;5.50;99.90;;;;;;5042318;28;20028;-81
2024/02/02 10:46:20;;;;;;;7.82;4.38;;;5.60;99.90;;;;;;5044307;28;20117;-80
2024/02/02 10:49:13;;;;;;;9.20;4.22;;;5.80;99.90;;;;;;5029802;28;20079;-78
2024/02/02 10:52:06;;;;;;;7.47;4.22;;;5.90;99.90;;;;;;5043564;28;20064;-78
2024/02/02 10:54:58;;;;;;;10.20;6.07;;;5.90;99.90;;;;;;5044773;28;20833;-79
2024/02/02 10:57:52;;;;;;;11.77;5.63;;;6.00;99.90;;;;;;5043670;28;20072;-81
2024/02/02 11:00:21;;;;;;;11.98;5.28;;;6.20;99.90;;;;;;5032407;28;20040;-80
2024/02/02 11:02:53;;;;;;;9.23;5.30;;;6.30;99.90;;;;;;5026304;28;20114;-80
2024/02/02 11:05:28;;;;;;;11.55;5.82;;;6.30;99.90;;;;;;5043202;28;20059;-80
2024/02/02 11:07:54;;;;;;;7.97;4.97;;;6.60;99.90;;;;;;5043328;28;20033;-81
2024/02/02 11:10:52;;;;;;;9.10;4.82;;;6.60;99.90;;;;;;5045368;28;20063;-79
2024/02/02 11:13:46;;;;;;;10.10;5.90;;;6.60;99.90;;;;;;5021994;28;20049;-80
2024/02/02 11:16:23;;;;;;;15.80;6.75;;;6.80;99.90;;;;;;5043516;28;20131;-79
2024/02/02 11:19:10;;;;;;;8.18;4.93;;;6.90;99.90;;;;;;5046478;28;20490;-79
2024/02/02 11:21:57;;;;;;;9.95;5.97;;;7.00;99.90;;;;;;5050216;28;20486;-79
2024/02/02 11:24:54;;;;;;;10.27;5.88;;;6.90;99.90;;;;;;5049793;28;20071;-79
2024/02/02 11:27:26;;;;;;;13.60;6.18;;;6.90;99.90;;;;;;5049714;28;20123;-79
2024/02/02 11:30:10;;;;;;;15.13;6.57;;;7.00;99.90;;;;;;5049843;28;20374;-78
2024/02/02 11:33:07;;;;;;;11.95;7.13;;;7.10;99.90;;;;;;5050768;28;20226;-78
2024/02/02 11:36:09;;;;;;;13.52;6.30;;;7.30;99.40;;;;;;5050873;28;20097;-78
2024/02/02 11:39:14;;;;;;;9.40;5.45;;;7.60;99.30;;;;;;5051467;28;20188;-78
2024/02/02 11:41:41;;;;;;;11.32;6.47;;;7.70;99.00;;;;;;5052236;28;20036;-78
2024/02/02 11:44:11;;;;;;;11.93;7.30;;;7.80;98.60;;;;;;5051650;28;20440;-78
2024/02/02 11:46:37;;;;;;;15.02;9.02;;;8.00;98.70;;;;;;5050125;28;20056;-78
2024/02/02 11:49:11;;;;;;;18.73;10.15;;;8.20;98.50;;;;;;5050761;28;20032;-78
2024/02/02 11:51:45;;;;;;;12.63;6.22;;;8.30;98.50;;;;;;5055542;28;20086;-78
2024/02/02 11:55:01;;;;;;;10.02;6.80;;;8.30;98.40;;;;;;5050882;28;20032;-78
2024/02/02 11:57:30;;;;;;;11.45;5.40;;;8.60;98.10;;;;;;5053945;28;20037;-79
2024/02/02 11:59:58;;;;;;;8.70;4.55;;;8.70;97.70;;;;;;5051783;28;20036;-77
2024/02/02 12:02:37;;;;;;;11.00;4.43;;;8.80;97.80;;;;;;5051001;28;20486;-79
2024/02/02 12:05:15;;;;;;;13.32;5.82;;;8.80;97.70;;;;;;5050352;28;20101;-79
2024/02/02 12:08:10;;;;;;;7.97;4.28;;;9.00;97.50;;;;;;5048817;28;20063;-79
2024/02/02 12:10:41;;;;;;;8.73;4.80;;;8.90;97.60;;;;;;5049581;28;20049;-79
2024/02/02 12:13:18;;;;;;;8.45;4.28;;;9.00;97.10;;;;;;5049384;28;20020;-79
2024/02/02 12:15:44;;;;;;;7.70;4.38;;;9.00;96.80;;;;;;5048312;28;20122;-79
2024/02/02 12:18:10;;;;;;;6.68;4.05;;;9.00;96.70;;;;;;5049691;28;20735;-79
2024/02/02 12:20:38;;;;;;;6.28;3.33;;;9.00;96.30;;;;;;5047349;28;20048;-79
2024/02/02 12:23:05;;;;;;;8.52;3.85;;;9.10;96.50;;;;;;5046699;28;20642;-78
2024/02/02 12:25:30;;;;;;;8.48;4.40;;;9.30;96.30;;;;;;5045505;28;20139;-79
2024/02/02 12:27:56;;;;;;;8.15;3.85;;;9.50;96.60;;;;;;5050164;28;20028;-79
2024/02/02 12:30:22;;;;;;;6.72;3.55;;;9.50;95.80;;;;;;5051840;28;20048;-79
2024/02/02 12:32:58;;;;;;;5.78;3.38;;;9.30;95.80;;;;;;5047483;28;20188;-79
2024/02/02 12:35:24;;;;;;;7.03;3.60;;;9.20;95.80;;;;;;5047650;28;20121;-80
2024/02/02 12:37:51;;;;;;;8.02;3.10;;;9.30;95.90;;;;;;5049041;28;20032;-80
2024/02/02 12:40:22;;;;;;;9.95;3.90;;;9.40;95.40;;;;;;5049668;28;20044;-79
2024/02/02 12:42:48;;;;;;;10.50;4.03;;;9.40;95.50;;;;;;5049536;28;20604;-79
2024/02/02 12:45:15;;;;;;;7.63;3.92;;;9.60;95.30;;;;;;5048622;28;20040;-78
2024/02/02 12:47:41;;;;;;;8.70;2.90;;;9.90;94.80;;;;;;5047254;28;21287;-80
2024/02/02 12:50:14;;;;;;;5.60;2.60;;;9.80;95.00;;;;;;5047465;28;21349;-76
2024/02/02 12:52:48;;;;;;;10.90;3.95;;;9.70;94.90;;;;;;5046551;28;20036;-77
2024/02/02 12:55:14;;;;;;;6.75;2.92;;;10.10;95.00;;;;;;5045872;28;20029;-78
2024/02/02 12:57:43;;;;;;;9.02;3.33;;;10.30;94.30;;;;;;5046245;28;20035;-83
2024/02/02 13:00:18;;;;;;;6.50;2.70;;;10.40;94.20;;;;;;5044566;28;20521;-79
2024/02/02 13:02:45;;;;;;;6.85;2.45;;;10.40;94.10;;;;;;5044552;28;20071;-79
2024/02/02 13:05:18;;;;;;;6.18;2.90;;;10.60;94.00;;;;;;5045778;28;20052;-79
2024/02/02 13:07:48;;;;;;;8.32;2.78;;;10.60;94.00;;;;;;5046825;28;20200;-78
2024/02/02 13:10:14;;;;;;;5.60;2.45;;;10.40;93.30;;;;;;5046820;28;20522;-79
2024/02/02 13:12:45;;;;;;;5.10;2.63;;;10.30;93.90;;;;;;5043364;28;20146;-79